createdAt,value
2019-05-07T00:03:17.382Z,3.57
2019-05-07T00:06:04.549Z,3.50
2019-05-07T00:08:45.002Z,3.47
2019-05-07T00:11:25.046Z,3.50
2019-05-07T00:14:04.981Z,3.30
2019-05-07T00:16:44.931Z,3.40
2019-05-07T00:19:25.068Z,3.50
2019-05-07T00:21:52.947Z,3.40
2019-05-07T00:27:33.025Z,3.30
2019-05-07T00:30:13.209Z,3.73
2019-05-07T00:32:53.196Z,3.53
2019-05-07T00:35:38.897Z,3.60
2019-05-07T00:38:22.412Z,3.50
2019-05-07T00:41:22.926Z,3.70
2019-05-07T00:44:04.477Z,3.73
2019-05-07T00:46:44.760Z,3.10
2019-05-07T00:49:26.398Z,3.43
2019-05-07T00:52:06.945Z,3.27
2019-05-07T00:54:49.257Z,3.40
2019-05-07T00:57:28.941Z,3.47
2019-05-07T01:00:09.374Z,3.57
2019-05-07T01:02:49.428Z,3.30
2019-05-07T01:05:29.793Z,3.53
2019-05-07T01:08:09.537Z,3.57
2019-05-07T01:10:49.682Z,3.17
2019-05-07T01:13:29.764Z,3.77
2019-05-07T01:16:09.665Z,3.93
2019-05-07T01:18:49.985Z,3.80
2019-05-07T01:21:32.265Z,3.83
2019-05-07T01:24:12.379Z,3.47
2019-05-07T01:26:53.045Z,3.63
2019-05-07T01:29:33.618Z,3.40
2019-05-07T01:32:33.133Z,4.00
2019-05-07T01:35:35.769Z,3.57
2019-05-07T01:38:17.662Z,3.37
2019-05-07T01:40:58.061Z,3.20
2019-05-07T01:43:38.235Z,3.47
2019-05-07T01:46:18.441Z,3.20
2019-05-07T01:48:58.531Z,3.30
2019-05-07T01:51:38.555Z,3.83
2019-05-07T01:54:18.765Z,3.83
2019-05-07T01:56:59.425Z,2.97
2019-05-07T01:59:39.438Z,3.23
2019-05-07T02:05:54.086Z,3.40
2019-05-07T02:08:56.186Z,3.27
2019-05-07T02:11:42.141Z,3.30
2019-05-07T02:20:33.093Z,3.50
2019-05-07T02:23:13.322Z,3.93
2019-05-07T02:25:53.560Z,3.40
2019-05-07T02:28:33.753Z,3.50
2019-05-07T02:31:14.918Z,3.23
2019-05-07T02:33:55.452Z,3.53
2019-05-07T02:36:36.708Z,3.33
2019-05-07T02:39:24.084Z,3.20
2019-05-07T02:42:05.247Z,3.30
2019-05-07T02:45:05.091Z,3.30
2019-05-07T02:47:44.657Z,3.27
2019-05-07T02:56:23.708Z,2.90
2019-05-07T03:01:58.858Z,3.10
2019-05-07T03:04:39.431Z,3.30
2019-05-07T03:07:19.024Z,3.47
2019-05-07T03:09:59.262Z,3.87
2019-05-07T03:12:39.279Z,3.20
2019-05-07T03:15:19.294Z,2.97
2019-05-07T03:18:03.041Z,3.70
2019-05-07T03:26:37.806Z,2.83
2019-05-07T03:29:20.197Z,3.33
2019-05-07T03:32:19.988Z,3.23
2019-05-07T03:37:55.543Z,3.47
2019-05-07T03:40:36.280Z,3.40
2019-05-07T03:43:17.874Z,3.10
2019-05-07T03:46:16.988Z,3.40
2019-05-07T03:48:56.734Z,3.40
2019-05-07T03:51:36.927Z,3.07
2019-05-07T03:54:16.830Z,3.50
2019-05-07T03:57:01.446Z,3.53
2019-05-07T03:59:39.336Z,3.37
2019-05-07T04:02:19.037Z,3.50
2019-05-07T04:04:58.917Z,3.63
2019-05-07T04:07:39.043Z,3.67
2019-05-07T04:10:19.119Z,2.97
2019-05-07T04:12:59.184Z,3.73
2019-05-07T04:15:39.479Z,3.13
2019-05-07T04:18:19.553Z,3.30
2019-05-07T04:20:59.482Z,3.30
2019-05-07T04:23:39.718Z,3.50
2019-05-07T04:29:16.441Z,3.40
2019-05-07T04:31:56.466Z,3.73
2019-05-07T04:34:55.683Z,3.23
2019-05-07T04:37:24.003Z,3.47
2019-05-07T04:40:13.527Z,3.53
2019-05-07T04:42:54.005Z,3.27
2019-05-07T04:45:35.354Z,4.07
2019-05-07T04:48:15.786Z,4.03
2019-05-07T04:50:58.402Z,3.67
2019-05-07T04:53:38.298Z,4.10
2019-05-07T04:56:18.374Z,3.63
2019-05-07T04:58:58.520Z,3.87
2019-05-07T05:01:43.597Z,3.50
2019-05-07T05:04:30.109Z,3.40
2019-05-07T05:07:05.654Z,3.53
2019-05-07T05:09:47.924Z,3.30
2019-05-07T05:12:28.259Z,3.40
2019-05-07T05:15:08.206Z,3.47
2019-05-07T05:17:53.147Z,3.20
2019-05-07T05:20:19.701Z,3.40
2019-05-07T05:23:05.029Z,3.07
2019-05-07T05:25:35.477Z,3.60
2019-05-07T05:28:03.106Z,3.60
2019-05-07T05:30:56.032Z,3.47
2019-05-07T05:33:23.687Z,3.30
2019-05-07T05:35:52.542Z,3.73
2019-05-07T05:38:22.137Z,3.47
2019-05-07T05:40:51.878Z,3.10
2019-05-07T05:43:28.172Z,3.47
2019-05-07T05:45:57.445Z,3.17
2019-05-07T05:48:25.063Z,3.23
2019-05-07T05:51:27.213Z,3.33
2019-05-07T05:53:59.042Z,3.40
2019-05-07T05:56:35.510Z,2.83
2019-05-07T05:59:48.081Z,3.57
2019-05-07T06:02:23.541Z,2.97
2019-05-07T06:05:33.870Z,3.00
2019-05-07T06:11:27.257Z,2.90
2019-05-07T06:20:33.420Z,3.00
2019-05-07T06:26:13.621Z,2.63
2019-05-07T06:29:02.404Z,2.97
2019-05-07T06:31:44.802Z,3.00
2019-05-07T06:34:24.905Z,3.10
2019-05-07T06:37:05.402Z,3.13
2019-05-07T06:45:58.762Z,3.00
2019-05-07T06:48:43.600Z,3.33
2019-05-07T06:51:22.067Z,3.10
2019-05-07T06:54:02.914Z,3.20
2019-05-07T06:56:42.853Z,3.03
2019-05-07T07:05:46.763Z,3.17
2019-05-07T07:08:33.933Z,3.60
2019-05-07T07:11:33.022Z,2.97
2019-05-07T07:14:11.920Z,3.00
2019-05-07T07:16:58.956Z,3.53
2019-05-07T07:19:38.809Z,3.50
2019-05-07T07:22:06.459Z,3.13
2019-05-07T07:24:46.888Z,3.17
2019-05-07T07:27:14.546Z,3.40
2019-05-07T07:33:12.124Z,2.43
2019-05-07T07:35:39.841Z,3.10
2019-05-07T07:38:46.465Z,3.53
2019-05-07T07:41:38.809Z,2.93
2019-05-07T07:44:18.938Z,2.87
2019-05-07T07:46:58.766Z,3.10
2019-05-07T07:49:38.717Z,3.17
2019-05-07T07:52:18.812Z,3.17
2019-05-07T07:54:59.499Z,2.67
2019-05-07T07:57:58.916Z,3.47
2019-05-07T08:03:36.836Z,3.17
2019-05-07T08:06:17.099Z,3.30
2019-05-07T08:08:57.217Z,3.07
2019-05-07T08:11:37.394Z,3.23
2019-05-07T08:14:17.321Z,3.57
2019-05-07T08:16:57.796Z,4.00
2019-05-07T08:19:37.596Z,3.87
2019-05-07T08:22:25.305Z,3.43
2019-05-07T08:25:05.888Z,3.57
2019-05-07T08:27:46.019Z,3.70
2019-05-07T08:36:19.196Z,3.77
2019-05-07T08:38:59.023Z,4.10
2019-05-07T08:41:39.022Z,3.60
2019-05-07T08:44:22.298Z,3.20
2019-05-07T08:50:11.865Z,3.50
2019-05-07T08:52:52.173Z,3.60
2019-05-07T08:55:32.609Z,3.67
2019-05-07T08:58:12.738Z,3.60
2019-05-07T09:00:52.910Z,3.53
2019-05-07T09:03:52.338Z,3.83
2019-05-07T09:06:34.985Z,3.83
2019-05-07T09:09:15.401Z,3.63
2019-05-07T09:11:55.636Z,3.60
2019-05-07T09:14:35.742Z,4.20
2019-05-07T09:17:15.861Z,3.90
2019-05-07T09:19:50.598Z,3.60
2019-05-07T09:22:32.516Z,3.70
2019-05-07T09:25:13.050Z,4.10
2019-05-07T09:27:53.286Z,4.33
2019-05-07T09:30:55.270Z,4.20
2019-05-07T09:33:42.521Z,4.60
2019-05-07T09:36:28.482Z,4.03
2019-05-07T09:39:08.786Z,4.13
2019-05-07T09:41:48.978Z,3.83
2019-05-07T09:44:29.121Z,3.93
2019-05-07T09:47:09.453Z,4.27
2019-05-07T09:50:02.051Z,4.37
2019-05-07T09:52:32.155Z,4.13
2019-05-07T09:55:17.136Z,4.60
2019-05-07T09:57:42.588Z,4.20
2019-05-07T10:00:32.985Z,4.20
2019-05-07T10:03:13.163Z,4.20
2019-05-07T10:05:53.238Z,4.23
2019-05-07T10:08:33.236Z,4.47
2019-05-07T10:11:18.093Z,4.47
2019-05-07T10:14:02.321Z,4.23
2019-05-07T10:19:37.620Z,4.37
2019-05-07T10:22:06.332Z,4.17
2019-05-07T10:24:53.366Z,3.93
2019-05-07T10:27:33.866Z,3.97
2019-05-07T10:30:14.792Z,4.10
2019-05-07T10:32:55.004Z,4.20
2019-05-07T10:35:35.099Z,4.07
2019-05-07T10:38:15.141Z,4.00
2019-05-07T10:40:55.213Z,4.10
2019-05-07T10:43:34.998Z,4.37
2019-05-07T10:49:26.984Z,4.30
2019-05-07T10:52:07.517Z,4.60
2019-05-07T10:54:57.568Z,4.20
2019-05-07T10:57:29.789Z,4.40
2019-05-07T11:00:12.234Z,4.20
2019-05-07T11:02:51.910Z,4.40
2019-05-07T11:05:32.638Z,3.83
2019-05-07T11:08:13.078Z,4.40
2019-05-07T11:10:53.679Z,4.50
2019-05-07T11:13:33.278Z,4.20
2019-05-07T11:16:15.511Z,4.67
2019-05-07T11:18:55.759Z,4.70
2019-05-07T11:21:35.894Z,4.50
2019-05-07T11:24:16.095Z,4.37
2019-05-07T11:26:56.341Z,4.43
2019-05-07T11:29:36.734Z,4.50
2019-05-07T11:32:16.637Z,4.70
2019-05-07T11:34:56.678Z,4.80
2019-05-07T11:37:37.318Z,5.03
2019-05-07T11:40:19.911Z,4.87
2019-05-07T11:43:18.633Z,4.67
2019-05-07T11:54:44.617Z,5.90
2019-05-07T11:57:24.402Z,6.27
2019-05-07T12:00:05.086Z,5.40
2019-05-07T12:02:47.203Z,5.60
2019-05-07T12:05:26.983Z,4.90
2019-05-07T12:08:07.105Z,5.50
2019-05-07T12:10:47.022Z,5.33
2019-05-07T12:13:27.202Z,5.00
2019-05-07T12:16:07.351Z,5.20
2019-05-07T12:18:47.557Z,5.20
2019-05-07T12:21:27.489Z,5.63
2019-05-07T12:23:55.117Z,5.00
2019-05-07T12:26:22.697Z,5.30
2019-05-07T12:28:52.075Z,5.10
2019-05-07T12:31:45.186Z,5.08
2019-05-07T12:34:25.252Z,5.35
2019-05-07T12:36:52.853Z,5.10
2019-05-07T12:39:21.925Z,5.25
2019-05-07T12:42:09.098Z,4.92
2019-05-07T12:44:56.106Z,4.87
2019-05-07T12:47:36.742Z,5.33
2019-05-07T12:50:16.858Z,4.10
2019-05-07T12:55:57.529Z,5.37
2019-05-07T12:58:37.557Z,4.85
2019-05-07T13:04:18.565Z,4.62
2019-05-07T13:07:21.997Z,4.22
2019-05-07T13:10:03.604Z,4.62
2019-05-07T13:12:43.594Z,3.90
2019-05-07T13:18:23.273Z,4.90
2019-05-07T13:21:11.909Z,4.37
2019-05-07T13:23:52.509Z,3.70
2019-05-07T13:26:32.836Z,3.98
2019-05-07T13:29:13.282Z,3.40
2019-05-07T13:31:54.190Z,3.77
2019-05-07T13:34:34.853Z,3.55
2019-05-07T13:37:19.454Z,3.37
2019-05-07T13:40:04.114Z,2.80
2019-05-07T13:46:11.901Z,3.30
2019-05-07T13:48:51.953Z,2.63
2019-05-07T13:51:33.892Z,3.53
2019-05-07T13:54:14.106Z,3.00
2019-05-07T13:56:54.190Z,2.63
2019-05-07T13:59:34.353Z,2.70
2019-05-07T14:02:15.722Z,3.10
2019-05-07T14:04:43.921Z,2.80
2019-05-07T14:10:26.902Z,2.80
2019-05-07T14:13:14.071Z,3.43
2019-05-07T14:16:08.674Z,3.10
2019-05-07T14:18:48.682Z,3.03
2019-05-07T14:21:28.850Z,3.10
2019-05-07T14:24:08.934Z,3.07
2019-05-07T14:26:49.050Z,2.80
2019-05-07T14:29:29.265Z,2.87
2019-05-07T14:32:28.807Z,2.80
2019-05-07T14:35:28.223Z,2.90
2019-05-07T14:41:06.390Z,2.93
2019-05-07T14:44:09.179Z,2.70
2019-05-07T14:46:51.658Z,2.57
2019-05-07T14:49:31.792Z,2.47
2019-05-07T14:52:12.324Z,2.73
2019-05-07T14:54:52.831Z,2.43
2019-05-07T14:57:22.201Z,2.40
2019-05-07T15:00:12.030Z,2.43
2019-05-07T15:02:58.610Z,2.47
2019-05-07T15:05:26.245Z,2.60
2019-05-07T15:08:14.318Z,2.80
2019-05-07T15:11:02.830Z,3.07
2019-05-07T15:13:44.992Z,3.50
2019-05-07T15:16:25.735Z,3.50
2019-05-07T15:19:05.922Z,2.90
2019-05-07T15:21:45.773Z,3.50
2019-05-07T15:24:26.302Z,3.63
2019-05-07T15:27:06.417Z,3.60
2019-05-07T15:29:46.229Z,4.00
2019-05-07T15:32:14.171Z,3.87
2019-05-07T15:35:02.221Z,4.03
2019-05-07T15:37:42.888Z,4.13
2019-05-07T15:40:23.677Z,4.07
2019-05-07T15:43:04.134Z,3.83
2019-05-07T15:45:44.235Z,4.30
2019-05-07T15:48:24.381Z,3.70
2019-05-07T15:51:04.361Z,3.67
2019-05-07T15:53:52.237Z,3.93
2019-05-07T15:56:33.601Z,3.63
2019-05-07T15:59:22.313Z,3.60
2019-05-07T16:08:14.770Z,3.47
2019-05-07T16:10:54.289Z,3.70
2019-05-07T16:16:33.334Z,4.73
2019-05-07T16:19:32.208Z,4.30
2019-05-07T16:22:17.633Z,4.93
2019-05-07T16:24:57.766Z,5.73
2019-05-07T16:27:43.779Z,4.73
2019-05-07T16:30:24.094Z,4.77
2019-05-07T16:33:04.250Z,4.43
2019-05-07T16:35:45.675Z,4.90
2019-05-07T16:38:15.047Z,4.63
2019-05-07T16:41:02.304Z,4.43
2019-05-07T16:43:49.353Z,4.70
2019-05-07T16:46:28.959Z,4.67
2019-05-07T16:49:12.041Z,4.60
2019-05-07T16:51:52.750Z,4.63
2019-05-07T16:54:32.549Z,4.43
2019-05-07T17:00:31.742Z,4.50
2019-05-07T17:03:16.267Z,4.40
2019-05-07T17:05:56.098Z,4.10
2019-05-07T17:11:40.320Z,4.10
2019-05-07T17:14:20.361Z,4.70
2019-05-07T17:17:02.425Z,5.37
2019-05-07T17:19:42.646Z,5.20
2019-05-07T17:22:22.797Z,5.30
2019-05-07T17:25:22.808Z,5.30
2019-05-07T17:27:52.107Z,5.83
2019-05-07T17:30:32.579Z,5.53
2019-05-07T17:33:13.032Z,5.50
2019-05-07T17:35:52.737Z,5.60
2019-05-07T17:38:33.158Z,6.07
2019-05-07T17:41:20.250Z,6.07
2019-05-07T17:43:55.830Z,5.77
2019-05-07T17:46:36.073Z,6.03
2019-05-07T17:49:16.066Z,6.50
2019-05-07T17:51:57.127Z,5.80
2019-05-07T17:54:37.522Z,5.43
2019-05-07T17:57:17.833Z,5.80
2019-05-07T17:59:45.469Z,5.13
2019-05-07T18:02:51.942Z,5.07
2019-05-07T18:05:39.044Z,6.47
2019-05-07T18:08:18.994Z,5.33
2019-05-07T18:10:46.729Z,6.63
2019-05-07T18:13:33.757Z,6.30
2019-05-07T18:16:41.947Z,5.97
2019-05-07T18:19:22.293Z,7.13
2019-05-07T18:22:02.722Z,7.00
2019-05-07T18:24:42.581Z,7.10
2019-05-07T18:30:22.152Z,6.77
2019-05-07T18:33:22.711Z,8.33
2019-05-07T18:36:02.904Z,4.70
2019-05-07T18:38:43.597Z,5.20
2019-05-07T18:41:23.765Z,4.77
2019-05-07T18:44:12.182Z,3.97
2019-05-07T18:46:46.168Z,4.10
2019-05-07T18:49:26.230Z,3.83
2019-05-07T18:55:05.109Z,3.47
2019-05-07T18:57:45.766Z,3.10
2019-05-07T19:00:31.786Z,3.20
2019-05-07T19:03:12.646Z,3.20
2019-05-07T19:05:52.306Z,4.50
2019-05-07T19:08:35.331Z,4.43
2019-05-07T19:11:14.613Z,4.80
2019-05-07T19:16:53.650Z,3.70
2019-05-07T19:19:33.639Z,2.80
2019-05-07T19:22:14.086Z,3.00
2019-05-07T19:24:54.174Z,2.70
2019-05-07T19:27:34.199Z,2.93
2019-05-07T19:30:14.916Z,2.93
2019-05-07T19:32:55.182Z,3.40
2019-05-07T19:35:36.173Z,3.10
2019-05-07T19:38:16.413Z,3.17
2019-05-07T19:40:56.577Z,4.30
2019-05-07T19:43:36.510Z,4.57
2019-05-07T19:46:16.407Z,5.00
2019-05-07T19:48:56.549Z,4.60
2019-05-07T19:54:58.875Z,4.30
2019-05-07T19:57:37.635Z,4.13
2019-05-07T20:00:06.446Z,4.83
2019-05-07T20:05:55.796Z,3.97
2019-05-07T20:08:35.793Z,4.33
2019-05-07T20:11:35.426Z,4.27
2019-05-07T20:14:15.408Z,4.37
2019-05-07T20:16:58.307Z,5.40
2019-05-07T20:19:38.517Z,4.87
2019-05-07T20:22:18.521Z,4.67
2019-05-07T20:25:12.392Z,4.80
2019-05-07T20:27:41.828Z,4.10
2019-05-07T20:30:22.844Z,3.57
2019-05-07T20:33:03.188Z,4.00
2019-05-07T20:35:43.741Z,3.70
2019-05-07T20:38:24.421Z,3.63
2019-05-07T20:41:04.388Z,3.30
2019-05-07T20:43:44.593Z,3.80
2019-05-07T20:46:24.526Z,3.40
2019-05-07T20:49:05.713Z,3.43
2019-05-07T20:51:45.610Z,3.57
2019-05-07T20:54:32.684Z,3.80
2019-05-07T20:57:22.817Z,4.10
2019-05-07T21:00:02.958Z,2.90
2019-05-07T21:02:47.928Z,3.40
2019-05-07T21:05:25.106Z,3.30
2019-05-07T21:08:05.257Z,3.10
2019-05-07T21:10:45.400Z,3.53
2019-05-07T21:13:30.844Z,3.40
2019-05-07T21:16:07.537Z,3.63
2019-05-07T21:18:47.895Z,3.90
2019-05-07T21:21:27.748Z,3.50
2019-05-07T21:24:07.777Z,3.80
2019-05-07T21:26:47.858Z,3.80
2019-05-07T21:29:28.250Z,3.43
2019-05-07T21:32:08.217Z,3.90
2019-05-07T21:34:48.747Z,3.30
2019-05-07T21:37:28.554Z,3.00
2019-05-07T21:40:08.697Z,2.83
2019-05-07T21:42:48.703Z,3.27
2019-05-07T21:45:28.789Z,2.93
2019-05-07T21:48:09.061Z,3.10
2019-05-07T21:50:49.052Z,2.40
2019-05-07T21:53:34.558Z,2.70
2019-05-07T21:59:18.311Z,3.03
2019-05-07T22:02:02.180Z,2.70
2019-05-07T22:04:42.733Z,2.63
2019-05-07T22:07:22.837Z,2.77
2019-05-07T22:10:03.388Z,2.50
2019-05-07T22:12:43.374Z,2.60
2019-05-07T22:15:23.421Z,2.70
2019-05-07T22:18:03.687Z,2.97
2019-05-07T22:20:44.247Z,2.40
2019-05-07T22:23:24.935Z,2.33
2019-05-07T22:26:19.121Z,2.60
2019-05-07T22:28:47.036Z,2.77
2019-05-07T22:34:42.400Z,2.73
2019-05-07T22:37:22.250Z,2.80
2019-05-07T22:40:02.919Z,2.70
2019-05-07T22:42:42.901Z,3.00
2019-05-07T22:45:22.843Z,2.97
2019-05-07T22:48:02.915Z,2.60
2019-05-07T22:50:44.093Z,2.90
2019-05-07T22:53:24.133Z,2.40
2019-05-07T22:56:03.847Z,2.73
2019-05-07T22:58:50.171Z,2.60
2019-05-07T23:01:31.989Z,2.50
2019-05-07T23:04:12.276Z,2.33
2019-05-07T23:06:52.821Z,2.77
2019-05-07T23:09:33.341Z,2.40
2019-05-07T23:12:13.475Z,2.50
2019-05-07T23:14:53.834Z,2.43
2019-05-07T23:17:33.479Z,2.40
2019-05-07T23:20:13.590Z,2.67
2019-05-07T23:22:53.650Z,2.67
2019-05-07T23:25:33.786Z,2.30
2019-05-07T23:28:14.362Z,2.80
2019-05-07T23:30:54.386Z,2.67
2019-05-07T23:33:34.298Z,3.27
2019-05-07T23:36:14.282Z,3.20
2019-05-07T23:38:54.305Z,2.80
2019-05-07T23:44:47.621Z,2.70
2019-05-07T23:47:27.669Z,2.37
2019-05-07T23:50:07.590Z,2.47
2019-05-07T23:52:48.054Z,2.43
2019-05-07T23:55:28.016Z,2.67
2019-05-07T23:58:08.090Z,2.47
